createdAt,value
2022-10-03T00:01:26.309Z,102092.09
2022-10-03T00:04:06.698Z,102099.19
2022-10-03T00:06:47.709Z,102099.28
2022-10-03T00:09:36.791Z,102106.44
2022-10-03T00:12:15.898Z,102106.44
2022-10-03T00:14:54.808Z,102110.94
2022-10-03T00:17:28.244Z,102108.25
2022-10-03T00:20:04.479Z,102120.56
2022-10-03T00:22:40.718Z,102119.72
2022-10-03T00:25:34.958Z,102128.41
2022-10-03T00:28:19.880Z,102128.41
2022-10-03T00:31:07.451Z,102127.50
2022-10-03T00:33:47.712Z,102127.59
2022-10-03T00:36:25.181Z,102125.63
2022-10-03T00:39:14.895Z,102135.25
2022-10-03T00:42:07.213Z,102130.03
2022-10-03T00:45:05.041Z,102135.31
2022-10-03T00:48:07.949Z,102148.53
2022-10-03T00:50:53.127Z,102137.00
2022-10-03T00:53:45.409Z,102141.56
2022-10-03T00:56:35.402Z,102151.25
2022-10-03T00:59:25.470Z,102145.13
2022-10-03T01:01:53.717Z,102145.91
2022-10-03T01:04:45.271Z,102149.25
2022-10-03T01:07:32.695Z,102146.75
2022-10-03T01:10:13.203Z,102159.84
2022-10-03T01:12:56.551Z,102155.44
2022-10-03T01:15:36.136Z,102159.63
2022-10-03T01:18:18.162Z,102163.06
2022-10-03T01:20:58.854Z,102162.16
2022-10-03T01:23:47.031Z,102160.53
2022-10-03T01:26:35.876Z,102159.50
2022-10-03T01:29:27.736Z,102172.66
2022-10-03T01:32:05.343Z,102169.00
2022-10-03T01:34:50.190Z,102163.75
2022-10-03T01:37:25.520Z,102148.94
2022-10-03T01:40:00.050Z,102159.53
2022-10-03T01:42:47.136Z,102159.63
2022-10-03T01:45:29.072Z,102156.88
2022-10-03T01:48:03.167Z,102165.78
2022-10-03T01:50:38.856Z,102163.91
2022-10-03T01:53:15.483Z,102164.16
2022-10-03T01:55:55.376Z,102168.56
2022-10-03T01:58:31.423Z,102154.19
2022-10-03T02:01:10.943Z,102153.22
2022-10-03T02:03:48.794Z,102155.78
2022-10-03T02:06:27.990Z,102147.81
2022-10-03T02:09:01.562Z,102137.25
2022-10-03T02:11:36.673Z,102136.34
2022-10-03T02:14:23.936Z,102139.06
2022-10-03T02:17:07.856Z,102132.91
2022-10-03T02:19:43.419Z,102123.34
2022-10-03T02:22:17.875Z,102119.88
2022-10-03T02:24:55.287Z,102123.44
2022-10-03T02:28:12.731Z,102110.47
2022-10-03T02:31:07.510Z,102108.81
2022-10-03T02:34:05.811Z,102106.00
2022-10-03T02:37:06.075Z,102111.41
2022-10-03T02:39:59.795Z,102115.03
2022-10-03T02:43:17.257Z,102109.78
2022-10-03T02:46:19.823Z,102107.97
2022-10-03T02:52:35.081Z,102077.22
2022-10-03T02:55:32.975Z,102079.56
2022-10-03T02:58:33.182Z,102080.31
2022-10-03T03:01:48.896Z,102080.06
2022-10-03T03:05:06.895Z,102067.56
2022-10-03T03:08:08.236Z,102062.13
2022-10-03T03:11:00.648Z,102070.03
2022-10-03T03:13:59.141Z,102060.31
2022-10-03T03:16:57.862Z,102063.91
2022-10-03T03:19:52.223Z,102040.06
2022-10-03T03:22:37.219Z,102050.56
2022-10-03T03:25:46.195Z,102033.94
2022-10-03T03:28:27.804Z,102033.97
2022-10-03T03:31:09.603Z,102025.09
2022-10-03T03:33:58.517Z,102029.59
2022-10-03T03:36:39.314Z,102018.13
2022-10-03T03:39:31.422Z,102024.22
2022-10-03T03:42:26.272Z,102009.13
2022-10-03T03:45:08.764Z,101997.91
2022-10-03T03:48:10.505Z,101995.19
2022-10-03T03:50:56.725Z,101993.38
2022-10-03T03:54:00.583Z,101984.53
2022-10-03T03:56:53.163Z,101986.16
2022-10-03T03:59:40.409Z,101979.19
2022-10-03T04:02:23.245Z,101988.88
2022-10-03T04:05:02.598Z,101986.22
2022-10-03T04:07:50.434Z,101992.50
2022-10-03T04:10:30.241Z,101986.34
2022-10-03T04:13:14.125Z,101986.44
2022-10-03T04:16:05.703Z,101986.50
2022-10-03T04:18:59.377Z,101994.44
2022-10-03T04:21:39.870Z,101988.44
2022-10-03T04:24:49.767Z,101983.41
2022-10-03T04:27:42.425Z,101977.19
2022-10-03T04:30:15.752Z,101988.63
2022-10-03T04:33:20.107Z,101965.69
2022-10-03T04:36:25.632Z,101969.13
2022-10-03T04:39:06.686Z,101971.91
2022-10-03T04:41:44.141Z,101969.34
2022-10-03T04:44:30.702Z,101968.59
2022-10-03T04:47:03.605Z,101972.34
2022-10-03T04:49:40.902Z,101966.25
2022-10-03T04:52:21.868Z,101942.53
2022-10-03T04:55:02.867Z,101935.59
2022-10-03T04:57:39.321Z,101936.59
2022-10-03T05:00:24.563Z,101930.56
2022-10-03T05:03:06.115Z,101924.44
2022-10-03T05:05:59.670Z,101920.84
2022-10-03T05:08:38.229Z,101914.72
2022-10-03T05:11:14.832Z,101921.75
2022-10-03T05:13:54.808Z,101906.09
2022-10-03T05:16:36.408Z,101914.06
2022-10-03T05:19:42.791Z,101924.72
2022-10-03T05:22:23.854Z,101915.06
2022-10-03T05:25:16.363Z,101925.38
2022-10-03T05:28:23.516Z,101919.31
2022-10-03T05:30:58.744Z,101928.81
2022-10-03T05:33:44.599Z,101936.69
2022-10-03T05:36:35.359Z,101934.22
2022-10-03T05:39:39.265Z,101938.72
2022-10-03T05:42:46.269Z,101951.22
2022-10-03T05:45:30.671Z,101946.59
2022-10-03T05:48:15.965Z,101953.66
2022-10-03T05:51:23.556Z,101962.56
2022-10-03T05:54:40.110Z,101966.06
2022-10-03T05:57:43.747Z,101972.97
2022-10-03T06:00:22.116Z,101974.81
2022-10-03T06:03:16.158Z,101974.66
2022-10-03T06:06:08.504Z,101972.09
2022-10-03T06:08:59.386Z,101980.09
2022-10-03T06:11:43.630Z,101985.47
2022-10-03T06:14:51.631Z,101995.13
2022-10-03T06:17:48.250Z,101995.06
2022-10-03T06:20:46.491Z,101987.13
2022-10-03T06:23:53.800Z,101995.06
2022-10-03T06:26:54.594Z,102001.19
2022-10-03T06:30:00.175Z,102011.72
2022-10-03T06:33:00.046Z,102013.91
2022-10-03T06:35:58.588Z,102022.31
2022-10-03T06:39:21.375Z,102039.94
2022-10-03T06:42:37.532Z,102032.72
2022-10-03T06:45:41.372Z,102042.59
2022-10-03T06:48:29.517Z,102019.06
2022-10-03T06:51:17.836Z,102032.72
2022-10-03T06:54:23.826Z,102034.81
2022-10-03T06:57:20.731Z,102027.25
2022-10-03T07:00:10.000Z,102048.97
2022-10-03T07:03:11.181Z,102030.09
2022-10-03T07:06:15.081Z,102024.97
2022-10-03T07:09:16.301Z,102010.97
2022-10-03T07:12:21.652Z,101979.16
2022-10-03T07:15:17.176Z,101952.53
2022-10-03T07:18:07.259Z,101937.53
2022-10-03T07:21:18.004Z,101915.19
2022-10-03T07:24:14.994Z,101898.47
2022-10-03T07:27:14.519Z,101872.94
2022-10-03T07:30:07.756Z,101864.09
2022-10-03T07:33:02.464Z,101841.47
2022-10-03T07:36:00.795Z,101827.59
2022-10-03T07:39:04.779Z,101825.03
2022-10-03T07:42:16.618Z,101818.84
2022-10-03T07:45:10.110Z,101818.53
2022-10-03T07:48:08.689Z,101850.66
2022-10-03T07:51:15.892Z,101857.56
2022-10-03T07:54:15.106Z,101878.81
2022-10-03T07:57:06.053Z,101897.31
2022-10-03T08:00:16.952Z,101917.50
2022-10-03T08:03:14.972Z,101919.19
2022-10-03T08:06:12.913Z,101958.03
2022-10-03T08:09:19.775Z,102004.16
2022-10-03T08:12:32.630Z,102040.56
2022-10-03T08:15:16.263Z,102057.84
2022-10-03T08:18:12.032Z,102113.00
2022-10-03T08:20:50.968Z,102114.03
2022-10-03T08:23:48.824Z,102147.94
2022-10-03T08:26:23.975Z,102190.97
2022-10-03T08:29:17.430Z,102377.75
2022-10-03T08:32:24.058Z,102422.88
2022-10-03T08:35:10.242Z,101962.97
2022-10-03T08:38:36.717Z,101336.13
2022-10-03T08:41:44.827Z,101394.22
2022-10-03T08:45:03.674Z,101375.31
2022-10-03T08:48:15.181Z,101405.66
2022-10-03T08:51:18.770Z,101384.63
2022-10-03T08:54:08.352Z,101466.44
2022-10-03T08:57:11.693Z,101435.53
2022-10-03T09:00:16.867Z,101535.75
2022-10-03T09:03:34.281Z,101457.31
2022-10-03T09:07:12.171Z,101493.81
2022-10-03T09:10:10.620Z,101484.56
2022-10-03T09:13:12.405Z,101648.94
2022-10-03T09:16:22.716Z,101663.44
2022-10-03T09:19:16.019Z,101782.09
2022-10-03T09:25:35.520Z,102220.03
2022-10-03T09:28:47.154Z,102250.00
2022-10-03T09:31:39.340Z,102225.44
2022-10-03T09:42:33.064Z,102184.19
2022-10-03T09:45:49.203Z,102125.22
2022-10-03T09:48:36.248Z,102145.19
2022-10-03T09:51:31.286Z,102101.28
2022-10-03T09:54:35.856Z,102074.47
2022-10-03T09:57:22.791Z,102297.50
2022-10-03T10:00:16.345Z,102291.81
2022-10-03T10:03:13.395Z,102244.13
2022-10-03T10:06:28.309Z,102241.63
2022-10-03T10:09:25.538Z,102149.28
2022-10-03T10:12:23.419Z,102115.75
2022-10-03T10:15:16.492Z,102108.72
2022-10-03T10:18:30.007Z,102110.06
2022-10-03T10:21:36.152Z,102105.84
2022-10-03T10:29:22.181Z,102066.50
2022-10-03T10:32:36.594Z,102090.69
2022-10-03T10:35:44.546Z,102056.94
2022-10-03T10:38:37.645Z,102063.44
2022-10-03T10:42:02.300Z,102055.81
2022-10-03T10:45:24.440Z,102061.31
2022-10-03T10:48:38.132Z,102093.75
2022-10-03T10:51:35.208Z,102079.09
2022-10-03T10:54:49.215Z,102057.84
2022-10-03T10:57:46.135Z,102056.97
2022-10-03T11:00:23.387Z,102044.53
2022-10-03T11:03:25.020Z,102048.97
2022-10-03T11:06:33.665Z,102045.78
2022-10-03T11:10:00.945Z,102043.75
2022-10-03T11:13:20.549Z,102032.94
2022-10-03T11:16:35.794Z,102012.50
2022-10-03T11:19:34.813Z,102019.09
2022-10-03T11:22:40.195Z,101999.97
2022-10-03T11:25:58.468Z,102002.06
2022-10-03T11:29:02.292Z,102001.25
2022-10-03T11:32:12.954Z,102013.94
2022-10-03T11:35:11.120Z,102012.00
2022-10-03T11:37:45.609Z,102003.53
2022-10-03T11:40:37.430Z,102008.75
2022-10-03T11:43:40.869Z,101997.97
2022-10-03T11:46:23.896Z,101973.56
2022-10-03T11:49:03.220Z,101992.81
2022-10-03T11:51:42.669Z,101960.56
2022-10-03T11:54:32.690Z,101967.03
2022-10-03T11:57:04.676Z,101971.63
2022-10-03T12:00:00.344Z,101976.50
2022-10-03T12:03:01.969Z,101975.97
2022-10-03T12:05:47.104Z,101985.59
2022-10-03T12:08:42.328Z,101954.78
2022-10-03T12:11:18.661Z,101924.59
2022-10-03T12:13:57.532Z,101942.19
2022-10-03T12:16:30.452Z,101912.81
2022-10-03T12:19:08.305Z,101924.97
2022-10-03T12:21:47.270Z,101916.16
2022-10-03T12:24:25.195Z,101945.31
2022-10-03T12:27:00.409Z,101928.03
2022-10-03T12:29:33.568Z,101929.09
2022-10-03T12:32:28.084Z,101910.16
2022-10-03T12:35:08.144Z,101919.34
2022-10-03T12:37:45.490Z,101919.75
2022-10-03T12:40:24.810Z,101907.97
2022-10-03T12:43:10.752Z,101914.47
2022-10-03T12:45:43.418Z,101921.75
2022-10-03T12:48:24.205Z,101913.53
2022-10-03T12:50:59.514Z,101906.41
2022-10-03T12:53:48.268Z,101898.00
2022-10-03T12:56:23.151Z,101883.94
2022-10-03T12:58:57.066Z,101900.88
2022-10-03T13:01:41.591Z,101892.31
2022-10-03T13:04:21.718Z,101896.38
2022-10-03T13:07:15.258Z,101899.41
2022-10-03T13:10:15.653Z,101881.63
2022-10-03T13:12:53.119Z,101893.13
2022-10-03T13:15:52.885Z,101882.25
2022-10-03T13:18:51.740Z,101893.75
2022-10-03T13:24:32.170Z,101891.09
2022-10-03T13:27:10.694Z,101890.56
2022-10-03T13:29:45.322Z,101886.13
2022-10-03T13:32:32.307Z,101885.19
2022-10-03T13:35:50.942Z,101892.25
2022-10-03T13:38:59.970Z,101903.66
2022-10-03T13:41:42.855Z,101896.03
2022-10-03T13:44:23.806Z,101928.91
2022-10-03T13:46:59.116Z,101915.66
2022-10-03T13:49:52.018Z,101934.91
2022-10-03T13:52:34.970Z,101906.81
2022-10-03T13:55:18.358Z,101915.88
2022-10-03T13:58:02.340Z,101901.56
2022-10-03T14:04:01.320Z,101876.06
2022-10-03T14:06:38.000Z,101875.59
2022-10-03T14:09:32.973Z,101878.72
2022-10-03T14:12:15.008Z,101891.28
2022-10-03T14:17:53.291Z,101870.31
2022-10-03T14:20:30.461Z,101865.50
2022-10-03T14:27:47.934Z,101872.09
2022-10-03T14:30:18.666Z,101850.31
2022-10-03T14:32:56.221Z,101874.78
2022-10-03T14:35:43.598Z,101871.22
2022-10-03T14:38:50.603Z,101844.91
2022-10-03T14:41:26.014Z,101847.16
2022-10-03T14:43:56.590Z,101845.00
2022-10-03T14:46:28.515Z,101816.03
2022-10-03T14:49:00.037Z,101827.59
2022-10-03T14:51:38.546Z,101801.69
2022-10-03T14:54:20.756Z,101807.25
2022-10-03T14:56:52.685Z,101807.28
2022-10-03T14:59:33.493Z,101819.09
2022-10-03T15:03:01.181Z,101809.31
2022-10-03T15:05:43.947Z,101795.38
2022-10-03T15:08:17.883Z,101812.91
2022-10-03T15:11:12.198Z,101798.88
2022-10-03T15:14:03.964Z,101770.06
2022-10-03T15:16:39.672Z,101731.81
2022-10-03T15:19:15.299Z,101785.28
2022-10-03T15:21:45.899Z,101711.69
2022-10-03T15:24:25.530Z,101708.66
2022-10-03T15:27:00.096Z,101751.09
2022-10-03T15:29:41.616Z,101765.00
2022-10-03T15:32:23.664Z,101782.88
2022-10-03T15:35:01.812Z,101828.69
2022-10-03T15:37:47.630Z,101844.75
2022-10-03T15:40:34.579Z,101848.69
2022-10-03T15:43:12.382Z,101885.81
2022-10-03T15:45:41.571Z,101911.53
2022-10-03T15:48:16.846Z,101881.41
2022-10-03T15:51:02.175Z,101826.66
2022-10-03T15:53:37.172Z,101783.91
2022-10-03T15:56:18.978Z,101733.16
2022-10-03T15:58:55.117Z,101675.75
2022-10-03T16:01:27.800Z,101604.78
2022-10-03T16:03:58.958Z,101577.72
2022-10-03T16:06:41.519Z,101574.66
2022-10-03T16:09:19.664Z,101550.75
2022-10-03T16:12:03.075Z,101554.28
2022-10-03T16:14:42.217Z,101533.56
2022-10-03T16:17:18.912Z,101523.13
2022-10-03T16:19:53.575Z,101532.47
2022-10-03T16:22:29.891Z,101513.97
2022-10-03T16:25:16.254Z,101520.28
2022-10-03T16:27:54.892Z,101565.34
2022-10-03T16:30:28.921Z,101640.47
2022-10-03T16:33:05.514Z,101791.47
2022-10-03T16:35:49.136Z,101798.41
2022-10-03T16:38:24.433Z,101763.69
2022-10-03T16:40:56.846Z,101742.88
2022-10-03T16:43:31.506Z,101725.22
2022-10-03T16:46:03.244Z,101730.22
2022-10-03T16:48:52.516Z,101711.47
2022-10-03T16:51:23.752Z,101715.81
2022-10-03T16:53:56.874Z,101705.63
2022-10-03T16:56:28.036Z,101688.97
2022-10-03T16:59:04.171Z,101724.84
2022-10-03T17:01:36.813Z,101749.69
2022-10-03T17:04:21.730Z,101776.97
2022-10-03T17:06:52.278Z,101797.03
2022-10-03T17:09:28.264Z,101821.47
2022-10-03T17:11:59.768Z,101849.56
2022-10-03T17:14:35.905Z,101822.59
2022-10-03T17:17:08.473Z,101811.53
2022-10-03T17:19:41.041Z,101807.19
2022-10-03T17:22:18.926Z,101813.53
2022-10-03T17:24:52.957Z,101799.25
2022-10-03T17:27:29.552Z,101847.06
2022-10-03T17:30:04.095Z,101987.94
2022-10-03T17:32:38.254Z,101999.66
2022-10-03T17:35:17.897Z,101997.69
2022-10-03T17:38:48.440Z,102054.03
2022-10-03T17:41:23.909Z,102114.78
2022-10-03T17:44:04.872Z,102112.59
2022-10-03T17:46:45.810Z,102080.50
2022-10-03T17:49:24.941Z,102057.91
2022-10-03T17:51:56.444Z,102040.72
2022-10-03T17:54:31.736Z,102036.38
2022-10-03T17:57:06.345Z,102033.22
2022-10-03T17:59:45.988Z,102055.72
2022-10-03T18:02:22.103Z,102055.88
2022-10-03T18:04:59.337Z,102104.19
2022-10-03T18:07:29.747Z,102087.34
2022-10-03T18:09:58.602Z,102127.19
2022-10-03T18:12:42.817Z,102103.94
2022-10-03T18:15:41.330Z,102106.50
2022-10-03T18:18:44.797Z,102123.28
2022-10-03T18:21:23.665Z,102108.25
2022-10-03T18:24:12.447Z,102134.56
2022-10-03T18:26:47.714Z,102092.72
2022-10-03T18:29:30.036Z,102122.44
2022-10-03T18:32:03.723Z,102112.16
2022-10-03T18:34:46.125Z,102085.09
2022-10-03T18:37:57.422Z,102088.59
2022-10-03T18:40:29.739Z,102069.47
2022-10-03T18:43:00.835Z,102108.91
2022-10-03T18:45:34.456Z,102108.50
2022-10-03T18:48:13.573Z,102104.00
2022-10-03T18:50:54.444Z,102107.22
2022-10-03T18:53:33.006Z,102083.22
2022-10-03T18:56:04.823Z,102093.69
2022-10-03T18:58:36.870Z,102100.97
2022-10-03T19:01:08.753Z,102098.28
2022-10-03T19:03:40.146Z,102089.72
2022-10-03T19:06:19.359Z,102082.50
2022-10-03T19:08:54.715Z,102085.66
2022-10-03T19:11:27.521Z,102088.41
2022-10-03T19:14:02.430Z,102086.56
2022-10-03T19:17:00.693Z,102077.94
2022-10-03T19:19:41.617Z,102077.34
2022-10-03T19:22:14.697Z,102074.50
2022-10-03T19:24:58.715Z,102082.03
2022-10-03T19:27:47.408Z,102074.75
2022-10-03T19:30:21.153Z,102078.41
2022-10-03T19:32:58.130Z,102087.38
2022-10-03T19:35:28.150Z,102084.53
2022-10-03T19:38:01.762Z,102086.91
2022-10-03T19:40:45.081Z,102090.69
2022-10-03T19:43:38.122Z,102083.69
2022-10-03T19:46:17.107Z,102082.03
2022-10-03T19:48:49.840Z,102087.34
2022-10-03T19:51:35.771Z,102085.22
2022-10-03T19:54:14.085Z,102088.88
2022-10-03T19:56:43.729Z,102086.47
2022-10-03T19:59:19.125Z,102067.78
2022-10-03T20:01:48.959Z,102076.72
2022-10-03T20:04:36.309Z,102075.56
2022-10-03T20:07:13.638Z,102079.22
2022-10-03T20:09:46.394Z,102082.88
2022-10-03T20:12:20.227Z,102079.47
2022-10-03T20:14:51.579Z,102087.19
2022-10-03T20:17:40.209Z,102093.41
2022-10-03T20:20:18.432Z,102090.38
2022-10-03T20:22:50.268Z,102089.31
2022-10-03T20:25:30.665Z,102074.19
2022-10-03T20:28:04.638Z,102074.06
2022-10-03T20:30:40.937Z,102065.00
2022-10-03T20:33:09.737Z,102079.28
2022-10-03T20:35:53.467Z,102074.19
2022-10-03T20:38:37.529Z,102070.56
2022-10-03T20:41:16.487Z,102070.16
2022-10-03T20:43:55.566Z,102071.59
2022-10-03T20:46:31.104Z,102074.53
2022-10-03T20:49:24.529Z,102086.13
2022-10-03T20:52:01.725Z,102073.72
2022-10-03T20:54:36.347Z,102075.53
2022-10-03T20:57:20.693Z,102077.16
2022-10-03T20:59:53.682Z,102067.22
2022-10-03T21:02:32.392Z,102069.78
2022-10-03T21:05:05.745Z,102056.63
2022-10-03T21:07:39.415Z,102062.59
2022-10-03T21:10:19.135Z,102062.75
2022-10-03T21:12:51.647Z,102060.34
2022-10-03T21:15:30.572Z,102069.09
2022-10-03T21:17:59.673Z,102059.16
2022-10-03T21:20:33.687Z,102042.13
2022-10-03T21:23:06.709Z,102051.03
2022-10-03T21:25:37.219Z,102052.09
2022-10-03T21:28:05.758Z,102046.34
2022-10-03T21:30:56.938Z,102066.63
2022-10-03T21:33:31.611Z,102065.81
2022-10-03T21:36:09.397Z,102063.31
2022-10-03T21:38:43.032Z,102063.34
2022-10-03T21:41:32.968Z,102054.31
2022-10-03T21:44:02.788Z,102037.38
2022-10-03T21:46:40.202Z,102046.03
2022-10-03T21:49:37.383Z,102039.06
2022-10-03T21:52:30.594Z,102037.13
2022-10-03T21:55:11.387Z,102025.53
2022-10-03T21:57:55.462Z,102015.81
2022-10-03T22:00:57.068Z,102000.75
2022-10-03T22:03:30.880Z,101998.88
2022-10-03T22:06:07.572Z,102005.00
2022-10-03T22:08:38.463Z,102000.84
2022-10-03T22:11:25.096Z,101998.72
2022-10-03T22:14:03.328Z,101996.81
2022-10-03T22:16:42.704Z,101989.75
2022-10-03T22:19:20.764Z,101984.38
2022-10-03T22:22:10.787Z,101967.59
2022-10-03T22:24:50.925Z,101962.03
2022-10-03T22:27:25.493Z,101968.34
2022-10-03T22:30:02.582Z,101962.03
2022-10-03T22:32:41.732Z,101946.91
2022-10-03T22:35:32.702Z,101945.91
2022-10-03T22:38:03.287Z,101948.50
2022-10-03T22:40:33.410Z,101944.25
2022-10-03T22:43:04.646Z,101942.34
2022-10-03T22:45:35.067Z,101953.75
2022-10-03T22:48:10.963Z,101949.25
2022-10-03T22:50:43.200Z,101949.28
2022-10-03T22:53:16.232Z,101944.72
2022-10-03T22:55:49.575Z,101942.06
2022-10-03T22:58:19.419Z,101938.50
2022-10-03T23:00:51.591Z,101942.16
2022-10-03T23:03:24.469Z,101939.50
2022-10-03T23:06:18.264Z,101934.09
2022-10-03T23:08:57.096Z,101937.81
2022-10-03T23:11:27.972Z,101942.19
2022-10-03T23:13:58.894Z,101931.53
2022-10-03T23:16:52.410Z,101921.72
2022-10-03T23:19:31.489Z,101929.66
2022-10-03T23:22:01.226Z,101934.03
2022-10-03T23:24:34.360Z,101940.25
2022-10-03T23:27:44.465Z,101925.16
2022-10-03T23:30:55.161Z,101933.22
2022-10-03T23:33:49.799Z,101929.66
2022-10-03T23:36:20.108Z,101928.72
2022-10-03T23:39:29.843Z,101919.00
2022-10-03T23:42:01.099Z,101918.03
2022-10-03T23:44:40.425Z,101923.59
2022-10-03T23:47:13.680Z,101922.59
2022-10-03T23:49:44.433Z,101915.75
2022-10-03T23:52:20.918Z,101918.28
2022-10-03T23:54:51.518Z,101922.59
2022-10-03T23:57:20.827Z,101918.28
2022-10-03T23:59:50.090Z,101920.78
